Time;durP1;ratioP1;P1;durP2;ratioP2;P2;SDS_P1;SDS_P2;PMS_P1;PMS_P2;Temp;Humidity;BMP_temperature;BMP_pressure;BME280_temperature;BME280_humidity;BME280_pressure;Samples;Min_cycle;Max_cycle;Signal;HPM_P1;HPM_P2
2021/12/23 00:00:58;;;;;;;23.10;14.02;;;-1.00;99.90;;;;;;5074231;28;20501;-74
2021/12/23 00:03:23;;;;;;;27.67;14.13;;;-1.00;99.90;;;;;;5092195;28;20131;-74
2021/12/23 00:05:49;;;;;;;24.38;14.50;;;-0.90;99.90;;;;;;5057722;28;20482;-74
2021/12/23 00:08:15;;;;;;;27.02;14.73;;;-0.90;99.90;;;;;;5073996;28;20105;-74
2021/12/23 00:10:41;;;;;;;24.63;14.85;;;-0.90;99.90;;;;;;5057620;28;20096;-73
2021/12/23 00:13:07;;;;;;;22.27;14.52;;;-1.00;99.90;;;;;;5074260;28;20052;-74
2021/12/23 00:18:19;;;;;;;23.33;13.60;;;-0.90;99.90;;;;;;5073976;28;20052;-74
2021/12/23 00:23:27;;;;;;;24.08;14.75;;;-0.90;99.90;;;;;;5073843;28;20086;-74
2021/12/23 00:26:00;;;;;;;22.38;14.63;;;-0.90;99.90;;;;;;5072878;28;20048;-74
2021/12/23 00:28:27;;;;;;;24.10;13.80;;;-0.90;99.90;;;;;;5073427;28;20549;-74
2021/12/23 00:30:53;;;;;;;21.88;13.80;;;-0.90;99.90;;;;;;5091264;28;20459;-74
2021/12/23 00:33:21;;;;;;;24.35;14.23;;;-0.90;99.90;;;;;;5073791;28;20055;-74
2021/12/23 00:35:47;;;;;;;24.88;13.95;;;-0.90;99.90;;;;;;5056713;28;20494;-74
2021/12/23 00:38:19;;;;;;;22.98;14.63;;;-0.90;99.90;;;;;;5091477;28;20040;-73
2021/12/23 00:40:45;;;;;;;23.73;14.30;;;-0.90;99.90;;;;;;5073421;28;20082;-74
2021/12/23 00:43:11;;;;;;;25.45;14.32;;;-0.80;99.90;;;;;;5073327;28;20071;-74
2021/12/23 00:45:37;;;;;;;22.73;14.05;;;-0.80;99.90;;;;;;5040498;28;20044;-73
2021/12/23 00:48:02;;;;;;;21.27;13.95;;;-0.80;99.90;;;;;;5053157;28;20040;-73
2021/12/23 00:50:28;;;;;;;20.35;12.93;;;-0.80;99.90;;;;;;5053295;28;20052;-73
2021/12/23 00:53:00;;;;;;;23.95;14.43;;;-0.80;99.90;;;;;;5071009;28;20060;-73
2021/12/23 00:55:25;;;;;;;21.77;14.05;;;-0.80;99.90;;;;;;5053595;28;20135;-73
2021/12/23 00:57:51;;;;;;;20.60;13.93;;;-0.80;99.90;;;;;;5070496;28;20127;-73
2021/12/23 01:00:21;;;;;;;23.45;14.57;;;-0.80;99.90;;;;;;5053113;28;20399;-73
2021/12/23 01:02:47;;;;;;;24.02;13.98;;;-0.70;99.90;;;;;;5036460;28;20045;-73
2021/12/23 01:05:16;;;;;;;21.05;13.45;;;-0.80;99.90;;;;;;5052866;28;20047;-73
2021/12/23 01:07:41;;;;;;;24.30;14.77;;;-0.70;99.90;;;;;;5052610;28;20048;-73
2021/12/23 01:10:07;;;;;;;21.08;14.02;;;-0.70;99.90;;;;;;5052493;28;20051;-73
2021/12/23 01:12:43;;;;;;;22.65;13.82;;;-0.70;99.90;;;;;;5053213;28;20041;-73
2021/12/23 01:15:14;;;;;;;21.77;13.93;;;-0.70;99.90;;;;;;5052886;28;20048;-73
2021/12/23 01:18:05;;;;;;;23.98;13.85;;;-0.70;99.90;;;;;;5052163;28;20553;-73
2021/12/23 01:20:35;;;;;;;21.25;13.82;;;-0.60;99.90;;;;;;5070259;28;20056;-73
2021/12/23 01:23:11;;;;;;;22.33;14.15;;;-0.60;99.90;;;;;;5052870;28;20040;-73
2021/12/23 01:25:39;;;;;;;22.05;13.48;;;-0.60;99.90;;;;;;5070586;28;20111;-73
2021/12/23 01:28:07;;;;;;;24.95;13.95;;;-0.60;99.90;;;;;;5052958;28;20436;-73
2021/12/23 01:30:37;;;;;;;21.60;13.70;;;-0.60;99.90;;;;;;5051982;28;20479;-73
2021/12/23 01:33:03;;;;;;;22.83;14.35;;;-0.60;99.90;;;;;;5052832;28;20050;-73
2021/12/23 01:35:29;;;;;;;21.35;13.63;;;-0.60;99.90;;;;;;5070507;28;20056;-73
2021/12/23 01:37:54;;;;;;;25.67;14.40;;;-0.50;99.90;;;;;;5052066;28;20044;-73
2021/12/23 01:40:24;;;;;;;21.58;13.70;;;-0.60;99.90;;;;;;5070422;28;20062;-73
2021/12/23 01:42:50;;;;;;;22.88;13.75;;;-0.60;99.90;;;;;;5070043;28;20402;-73
2021/12/23 01:45:20;;;;;;;23.20;14.13;;;-0.60;99.90;;;;;;5065670;28;20109;-73
2021/12/23 01:47:46;;;;;;;24.65;13.93;;;-0.50;99.90;;;;;;5072243;28;20139;-73
2021/12/23 01:50:15;;;;;;;20.83;13.57;;;-0.50;99.90;;;;;;5090291;28;20048;-73
2021/12/23 01:52:41;;;;;;;23.58;14.02;;;-0.50;99.90;;;;;;5072109;28;20066;-73
2021/12/23 01:55:09;;;;;;;24.23;15.40;;;-0.50;99.90;;;;;;5090013;28;20044;-73
2021/12/23 01:57:35;;;;;;;23.55;13.82;;;-0.50;99.90;;;;;;5072220;28;20087;-73
2021/12/23 02:00:05;;;;;;;25.63;15.32;;;-0.50;99.90;;;;;;5090076;28;20147;-74
2021/12/23 02:02:32;;;;;;;25.85;15.20;;;-0.50;99.90;;;;;;5071964;28;20046;-73
2021/12/23 02:04:58;;;;;;;25.10;14.52;;;-0.50;99.90;;;;;;5071994;28;20093;-73
2021/12/23 02:07:24;;;;;;;21.98;14.68;;;-0.50;99.90;;;;;;5071509;28;20052;-73
2021/12/23 02:09:49;;;;;;;23.08;14.75;;;-0.50;99.90;;;;;;5071730;28;20522;-73
2021/12/23 02:12:18;;;;;;;24.98;14.40;;;-0.50;99.90;;;;;;5071950;28;20048;-73
2021/12/23 02:14:44;;;;;;;22.55;15.13;;;-0.50;99.90;;;;;;5055358;28;20402;-73
2021/12/23 02:17:09;;;;;;;23.35;14.50;;;-0.50;99.90;;;;;;5088884;28;20044;-73
2021/12/23 02:19:35;;;;;;;20.30;13.38;;;-0.50;99.90;;;;;;5070351;28;20823;-74
2021/12/23 02:22:01;;;;;;;21.35;14.10;;;-0.50;99.90;;;;;;5070344;28;20043;-74
2021/12/23 02:24:27;;;;;;;21.08;14.00;;;-0.50;99.90;;;;;;5070860;28;20044;-73
2021/12/23 02:26:52;;;;;;;19.45;12.85;;;-0.40;99.90;;;;;;5070527;28;20402;-73
2021/12/23 02:29:18;;;;;;;21.35;13.23;;;-0.40;99.90;;;;;;5070816;28;20074;-74
2021/12/23 02:31:48;;;;;;;21.52;13.77;;;-0.30;99.90;;;;;;5042990;28;20135;-74
2021/12/23 02:34:16;;;;;;;22.83;15.32;;;-0.30;99.90;;;;;;5062369;28;20052;-74
2021/12/23 02:36:41;;;;;;;21.85;15.02;;;-0.30;99.90;;;;;;5050321;28;20045;-74
2021/12/23 02:39:07;;;;;;;22.85;14.38;;;-0.30;99.90;;;;;;5064154;28;20055;-74
2021/12/23 02:41:32;;;;;;;22.20;14.55;;;-0.30;99.90;;;;;;5070818;28;20498;-74
2021/12/23 02:43:58;;;;;;;22.63;14.77;;;-0.20;99.90;;;;;;5088061;28;20043;-74
2021/12/23 02:46:24;;;;;;;21.00;14.20;;;-0.20;99.90;;;;;;5085810;28;20502;-74
2021/12/23 02:48:50;;;;;;;22.73;14.43;;;-0.20;99.90;;;;;;5034558;28;20109;-74
2021/12/23 02:51:16;;;;;;;25.48;14.25;;;-0.20;99.90;;;;;;5054519;28;20044;-74
2021/12/23 02:53:44;;;;;;;21.35;14.55;;;-0.20;99.90;;;;;;5054763;28;20047;-74
2021/12/23 02:56:14;;;;;;;25.55;14.85;;;-0.20;99.90;;;;;;5072115;28;20123;-74
2021/12/23 02:58:40;;;;;;;22.80;14.80;;;-0.20;99.90;;;;;;5054537;28;20161;-74
2021/12/23 03:01:09;;;;;;;22.50;14.10;;;-0.20;99.90;;;;;;5038063;28;20456;-74
2021/12/23 03:03:35;;;;;;;25.30;14.82;;;-0.20;99.90;;;;;;5041202;28;20036;-74
2021/12/23 03:06:01;;;;;;;26.98;16.35;;;-0.20;99.90;;;;;;5074255;28;20064;-74
2021/12/23 03:08:35;;;;;;;23.88;15.90;;;-0.20;99.90;;;;;;5092742;28;20119;-74
2021/12/23 03:11:02;;;;;;;26.05;16.52;;;-0.20;99.90;;;;;;5074079;28;20036;-74
2021/12/23 03:13:28;;;;;;;22.67;14.57;;;-0.20;99.90;;;;;;5074413;28;20047;-74
2021/12/23 03:15:53;;;;;;;24.20;16.55;;;-0.20;99.90;;;;;;5073638;28;20805;-74
2021/12/23 03:18:19;;;;;;;24.30;15.18;;;-0.20;99.90;;;;;;5074159;28;20079;-74
2021/12/23 03:20:45;;;;;;;32.88;17.38;;;-0.20;99.90;;;;;;5057482;28;20044;-74
2021/12/23 03:23:10;;;;;;;23.75;15.02;;;-0.20;99.90;;;;;;5057486;28;20056;-74
2021/12/23 03:25:36;;;;;;;24.25;15.75;;;-0.20;99.90;;;;;;5073423;28;20607;-74
2021/12/23 03:28:02;;;;;;;24.17;14.70;;;-0.10;99.90;;;;;;5074100;28;20093;-74
2021/12/23 03:30:28;;;;;;;25.88;16.42;;;-0.10;99.90;;;;;;5073813;28;20047;-74
2021/12/23 03:32:54;;;;;;;26.95;15.95;;;-0.10;99.90;;;;;;5073538;28;20044;-74
2021/12/23 03:35:19;;;;;;;25.23;15.80;;;-0.10;99.90;;;;;;5073495;28;20149;-74
2021/12/23 03:37:45;;;;;;;26.70;15.52;;;-0.10;99.90;;;;;;5069550;28;20491;-74
2021/12/23 03:40:12;;;;;;;24.80;15.38;;;-0.10;99.90;;;;;;5053962;28;20711;-74
2021/12/23 03:42:39;;;;;;;22.58;14.50;;;-0.10;99.90;;;;;;5071236;28;20045;-74
2021/12/23 03:45:08;;;;;;;23.65;14.75;;;0.00;99.90;;;;;;5071623;28;20044;-74
2021/12/23 03:47:35;;;;;;;24.75;15.48;;;0.00;99.90;;;;;;5053157;28;20564;-74
2021/12/23 03:50:00;;;;;;;26.23;15.45;;;0.00;99.90;;;;;;5053373;28;20486;-74
2021/12/23 03:52:26;;;;;;;23.27;14.93;;;0.00;99.90;;;;;;5053500;28;20091;-74
2021/12/23 03:54:52;;;;;;;21.88;14.82;;;0.00;99.90;;;;;;5071208;28;20041;-74
2021/12/23 03:57:17;;;;;;;23.10;15.88;;;0.00;99.90;;;;;;5053196;28;20044;-74
2021/12/23 03:59:43;;;;;;;24.55;15.50;;;0.00;99.90;;;;;;5072229;28;20090;-74
2021/12/23 04:02:09;;;;;;;25.40;15.80;;;0.00;99.90;;;;;;5054485;28;20087;-74
2021/12/23 04:04:35;;;;;;;20.73;14.18;;;0.00;99.90;;;;;;5053695;28;20048;-75
2021/12/23 04:07:00;;;;;;;26.20;15.50;;;0.00;99.90;;;;;;5054146;28;20056;-74
2021/12/23 04:09:26;;;;;;;24.10;15.65;;;0.00;99.90;;;;;;5037414;28;20049;-74
2021/12/23 04:11:52;;;;;;;24.17;14.32;;;0.00;99.90;;;;;;5037462;28;20415;-74
2021/12/23 04:14:17;;;;;;;21.80;13.70;;;0.00;99.90;;;;;;5053896;28;20045;-74
2021/12/23 04:16:43;;;;;;;26.13;14.57;;;0.00;99.90;;;;;;5054017;28;20068;-74
2021/12/23 04:19:10;;;;;;;22.65;14.82;;;0.00;99.90;;;;;;5053883;28;20072;-74
2021/12/23 04:21:38;;;;;;;24.52;15.25;;;0.00;99.90;;;;;;5053993;28;20499;-74
2021/12/23 04:24:04;;;;;;;23.83;15.70;;;0.00;99.90;;;;;;5053697;28;20056;-74
2021/12/23 04:26:29;;;;;;;;;;;0.00;99.90;;;;;;5037823;28;20051;-74
2021/12/23 04:28:55;;;;;;;;;;;0.00;99.90;;;;;;5054391;28;19921;-74
2021/12/23 04:31:21;;;;;;;;;;;0.00;99.90;;;;;;5053844;28;19924;-74
2021/12/23 04:33:48;;;;;;;;;;;0.00;99.90;;;;;;5072357;28;20011;-74
2021/12/23 04:36:15;;;;;;;;;;;0.00;99.90;;;;;;5072134;28;19927;-74
2021/12/23 04:38:42;;;;;;;;;;;0.00;99.90;;;;;;5083988;28;19920;-74
2021/12/23 04:41:08;;;;;;;;;;;0.00;99.90;;;;;;5091750;28;19920;-74
2021/12/23 04:43:33;;;;;;;;;;;0.00;99.90;;;;;;5073881;28;19920;-74
2021/12/23 04:45:59;;;;;;;;;;;0.00;99.90;;;;;;5073924;28;20294;-74
2021/12/23 04:48:25;;;;;;;;;;;0.00;99.90;;;;;;5074394;28;19927;-74
2021/12/23 04:50:51;;;;;;;;;;;0.00;99.90;;;;;;5091684;28;19924;-74
2021/12/23 04:53:17;;;;;;;22.88;14.60;;;0.00;99.90;;;;;;5057128;28;19920;-74
2021/12/23 04:55:42;;;;;;;27.50;15.73;;;0.00;99.90;;;;;;5073128;28;20543;-74
2021/12/23 04:58:09;;;;;;;22.63;15.18;;;0.00;99.90;;;;;;5073606;28;20427;-74
2021/12/23 05:00:34;;;;;;;24.67;15.63;;;0.00;99.90;;;;;;5072969;28;20501;-74
2021/12/23 05:03:00;;;;;;;25.30;14.93;;;0.00;99.90;;;;;;5073301;28;20048;-74
2021/12/23 05:05:26;;;;;;;24.52;15.25;;;0.00;99.90;;;;;;5091172;28;20440;-74
2021/12/23 05:07:51;;;;;;;25.52;14.48;;;0.00;99.90;;;;;;5072826;28;20477;-74
2021/12/23 05:10:18;;;;;;;24.70;14.73;;;0.00;99.90;;;;;;5056378;28;20044;-74
2021/12/23 05:12:45;;;;;;;25.90;15.00;;;0.00;99.90;;;;;;5090346;28;20128;-74
2021/12/23 05:15:17;;;;;;;26.55;14.85;;;0.00;99.90;;;;;;5056054;28;20430;-74
2021/12/23 05:17:43;;;;;;;26.58;16.23;;;0.00;99.90;;;;;;5090829;28;20516;-74
2021/12/23 05:20:11;;;;;;;22.75;15.20;;;0.10;99.90;;;;;;5090858;28;20048;-74
2021/12/23 05:22:37;;;;;;;24.73;15.50;;;0.10;99.90;;;;;;5090921;28;20055;-74
2021/12/23 05:25:05;;;;;;;22.20;15.40;;;0.10;99.90;;;;;;5072022;28;20490;-74
2021/12/23 05:27:31;;;;;;;22.13;15.52;;;0.00;99.90;;;;;;5072648;28;20044;-74
2021/12/23 05:29:56;;;;;;;25.17;15.90;;;0.10;99.90;;;;;;5056012;28;20044;-74
2021/12/23 05:32:22;;;;;;;25.27;15.85;;;0.10;99.90;;;;;;5090562;28;20419;-74
2021/12/23 05:34:48;;;;;;;21.42;14.93;;;0.10;99.90;;;;;;5090874;28;20051;-74
2021/12/23 05:37:13;;;;;;;23.05;14.73;;;0.10;99.90;;;;;;5090031;28;20036;-74
2021/12/23 05:39:39;;;;;;;24.02;16.05;;;0.10;99.90;;;;;;5035770;28;20052;-74
2021/12/23 05:42:05;;;;;;;24.17;15.93;;;0.10;99.90;;;;;;5052118;28;20048;-74
2021/12/23 05:44:31;;;;;;;23.65;15.10;;;0.10;99.90;;;;;;5069947;28;20056;-74
2021/12/23 05:46:56;;;;;;;26.08;15.88;;;0.10;99.90;;;;;;5052094;28;20436;-74
2021/12/23 05:49:22;;;;;;;;;;;0.10;99.90;;;;;;5051724;28;20041;-74
2021/12/23 05:51:48;;;;;;;21.30;13.07;;;0.10;99.90;;;;;;5051835;28;19924;-74
2021/12/23 05:54:13;;;;;;;24.05;15.55;;;0.10;99.90;;;;;;5069764;28;20044;-74
2021/12/23 05:56:39;;;;;;;;;;;0.10;99.90;;;;;;5070289;28;20049;-74
2021/12/23 05:59:04;;;;;;;22.40;14.23;;;0.10;99.90;;;;;;5069445;28;19920;-74
2021/12/23 06:01:31;;;;;;;26.58;16.33;;;0.10;99.90;;;;;;5069853;28;20119;-74
2021/12/23 06:03:57;;;;;;;23.38;15.40;;;0.10;99.90;;;;;;5035401;28;20174;-74
2021/12/23 06:06:22;;;;;;;26.15;16.15;;;0.10;99.90;;;;;;5069409;28;20528;-74
2021/12/23 06:08:48;;;;;;;24.58;15.73;;;0.10;99.90;;;;;;5051697;28;20056;-74
2021/12/23 06:11:14;;;;;;;23.05;15.38;;;0.20;99.90;;;;;;5051529;28;20048;-74
2021/12/23 06:13:40;;;;;;;26.30;15.25;;;0.20;99.90;;;;;;5069466;28;20101;-74
2021/12/23 06:16:06;;;;;;;25.25;15.18;;;0.20;99.90;;;;;;5051853;28;20487;-73
2021/12/23 06:18:31;;;;;;;23.35;15.57;;;0.20;99.90;;;;;;5051794;28;20041;-73
2021/12/23 06:20:57;;;;;;;25.42;16.35;;;0.20;99.90;;;;;;5069292;28;20152;-73
2021/12/23 06:23:23;;;;;;;27.05;15.82;;;0.20;99.90;;;;;;5068610;28;20044;-74
2021/12/23 06:25:48;;;;;;;27.23;16.88;;;0.20;99.90;;;;;;5051689;28;20135;-73
2021/12/23 06:28:14;;;;;;;25.42;15.23;;;0.10;99.90;;;;;;5069311;28;20483;-74
2021/12/23 06:30:40;;;;;;;27.15;20.70;;;0.20;99.90;;;;;;5049862;28;20438;-74
2021/12/23 06:33:06;;;;;;;25.47;20.33;;;0.20;99.90;;;;;;5033983;28;20802;-73
2021/12/23 06:35:31;;;;;;;27.23;20.60;;;0.20;99.90;;;;;;5049987;28;20994;-73
2021/12/23 06:38:02;;;;;;;27.25;20.65;;;0.20;99.90;;;;;;5074038;28;20481;-76
2021/12/23 06:40:28;;;;;;;27.90;21.33;;;0.20;99.90;;;;;;5070210;28;20386;-73
2021/12/23 06:42:54;;;;;;;24.45;17.15;;;0.20;99.90;;;;;;5089604;28;20116;-75
2021/12/23 06:45:20;;;;;;;26.85;15.50;;;0.20;99.90;;;;;;5086827;28;20119;-73
2021/12/23 06:47:45;;;;;;;24.67;15.57;;;0.20;99.90;;;;;;5071122;28;20040;-74
2021/12/23 06:50:12;;;;;;;22.85;15.40;;;0.20;99.90;;;;;;5056969;28;20051;-73
2021/12/23 06:52:39;;;;;;;24.13;15.65;;;0.20;99.90;;;;;;5051526;28;20494;-72
2021/12/23 06:55:07;;;;;;;25.10;15.48;;;0.20;99.90;;;;;;5069350;28;20402;-71
2021/12/23 06:57:33;;;;;;;23.80;15.82;;;0.20;99.90;;;;;;5051467;28;20532;-72
2021/12/23 06:59:58;;;;;;;25.52;16.05;;;0.20;99.90;;;;;;5051431;28;20040;-73
2021/12/23 07:02:25;;;;;;;24.42;16.38;;;0.20;99.90;;;;;;5055931;28;20089;-73
2021/12/23 07:04:51;;;;;;;23.45;15.82;;;0.10;99.90;;;;;;5071434;28;20697;-73
2021/12/23 07:07:27;;;;;;;21.23;14.18;;;0.10;99.90;;;;;;5071218;28;20695;-73
2021/12/23 07:09:54;;;;;;;24.10;15.50;;;0.10;99.90;;;;;;5061222;28;20550;-74
2021/12/23 07:12:21;;;;;;;24.25;15.25;;;0.20;99.90;;;;;;5062293;28;20127;-73
2021/12/23 07:14:47;;;;;;;24.15;15.63;;;0.20;99.90;;;;;;5051557;28;20051;-73
2021/12/23 07:17:12;;;;;;;26.55;16.55;;;0.20;99.90;;;;;;5063151;28;20052;-73
2021/12/23 07:19:38;;;;;;;27.88;17.08;;;0.20;99.90;;;;;;5066956;28;20044;-73
2021/12/23 07:22:04;;;;;;;24.88;15.63;;;0.20;99.90;;;;;;5070707;28;20108;-73
2021/12/23 07:24:30;;;;;;;26.65;17.10;;;0.20;99.90;;;;;;5058097;28;20421;-73
2021/12/23 07:26:56;;;;;;;25.63;16.05;;;0.20;99.90;;;;;;5063876;28;20425;-73
2021/12/23 07:29:21;;;;;;;28.05;16.58;;;0.30;99.90;;;;;;5063512;28;20044;-74
2021/12/23 07:31:47;;;;;;;24.55;16.30;;;0.30;99.90;;;;;;5067959;28;20040;-73
2021/12/23 07:34:13;;;;;;;25.38;16.52;;;0.30;99.90;;;;;;5061292;28;20040;-73
2021/12/23 07:36:39;;;;;;;24.85;15.98;;;0.30;99.90;;;;;;5064946;28;20052;-73
2021/12/23 07:39:07;;;;;;;27.25;17.38;;;0.40;99.90;;;;;;5069325;28;20048;-73
2021/12/23 07:41:34;;;;;;;28.35;17.73;;;0.40;99.90;;;;;;5073966;28;20044;-73
2021/12/23 07:44:03;;;;;;;26.85;17.75;;;0.40;99.90;;;;;;5073423;28;20055;-74
2021/12/23 07:46:32;;;;;;;30.27;18.20;;;0.40;99.90;;;;;;5070516;28;20125;-74
2021/12/23 07:48:58;;;;;;;28.58;18.25;;;0.40;99.90;;;;;;5070910;28;20045;-74
2021/12/23 07:51:25;;;;;;;26.63;18.42;;;0.50;99.90;;;;;;5070492;28;20073;-74
2021/12/23 07:53:51;;;;;;;29.88;18.70;;;0.50;99.90;;;;;;5070891;28;20040;-74
2021/12/23 07:56:17;;;;;;;31.35;17.88;;;0.50;99.90;;;;;;5057135;28;20406;-74
2021/12/23 07:58:43;;;;;;;26.98;17.25;;;0.50;99.90;;;;;;5070126;28;20040;-74
2021/12/23 08:01:08;;;;;;;33.05;18.38;;;0.50;99.90;;;;;;5070449;28;20056;-74
2021/12/23 08:03:34;;;;;;;29.88;18.35;;;0.50;99.90;;;;;;5070786;28;20484;-74
2021/12/23 08:06:00;;;;;;;30.67;19.45;;;0.50;99.90;;;;;;5071631;28;20079;-74
2021/12/23 08:08:25;;;;;;;30.38;19.23;;;0.50;99.90;;;;;;5060205;28;20048;-74
2021/12/23 08:10:51;;;;;;;31.35;20.05;;;0.60;99.90;;;;;;5073538;28;20048;-74
2021/12/23 08:13:17;;;;;;;30.58;19.75;;;0.50;99.90;;;;;;5063877;28;20063;-74
2021/12/23 08:15:43;;;;;;;30.90;20.40;;;0.60;99.90;;;;;;5053876;28;20131;-74
2021/12/23 08:18:09;;;;;;;32.35;20.92;;;0.60;99.90;;;;;;5053294;28;20102;-74
2021/12/23 08:20:35;;;;;;;35.65;22.20;;;0.60;99.90;;;;;;5059380;28;20040;-74
2021/12/23 08:23:01;;;;;;;34.80;19.98;;;0.60;99.90;;;;;;5073043;28;20044;-74
2021/12/23 08:25:27;;;;;;;30.13;19.52;;;0.60;99.90;;;;;;5069979;28;20044;-75
2021/12/23 08:27:53;;;;;;;35.80;21.38;;;0.70;99.90;;;;;;5070166;28;20041;-74
2021/12/23 08:30:20;;;;;;;32.08;20.27;;;0.70;99.90;;;;;;5053180;28;20043;-74
2021/12/23 08:32:47;;;;;;;36.60;22.23;;;0.70;99.90;;;;;;5067836;28;20044;-74
2021/12/23 08:35:13;;;;;;;33.35;21.25;;;0.70;99.90;;;;;;5062568;28;20046;-74
2021/12/23 08:37:41;;;;;;;34.33;22.67;;;0.70;99.90;;;;;;5070382;28;20044;-74
2021/12/23 08:40:08;;;;;;;30.30;19.40;;;0.70;99.90;;;;;;5055005;28;20047;-74
2021/12/23 08:42:35;;;;;;;32.58;20.02;;;0.70;99.90;;;;;;5069915;28;20059;-74
2021/12/23 08:45:03;;;;;;;32.95;20.23;;;0.70;99.90;;;;;;5070191;28;20040;-74
2021/12/23 08:47:28;;;;;;;32.35;20.77;;;0.70;99.90;;;;;;5071238;28;20099;-74
2021/12/23 08:49:54;;;;;;;31.77;18.25;;;0.70;99.90;;;;;;5069225;28;20495;-74
2021/12/23 08:52:20;;;;;;;33.10;18.88;;;0.70;99.90;;;;;;5069143;28;20067;-74
2021/12/23 08:54:45;;;;;;;32.67;21.15;;;0.70;99.90;;;;;;5073375;28;20052;-75
2021/12/23 08:57:11;;;;;;;32.40;19.65;;;0.70;99.90;;;;;;5072982;28;20059;-74
2021/12/23 08:59:37;;;;;;;33.17;20.83;;;0.70;99.90;;;;;;5069676;28;20106;-74
2021/12/23 09:02:04;;;;;;;34.20;20.77;;;0.60;99.90;;;;;;5072019;28;20398;-74
2021/12/23 09:04:29;;;;;;;33.72;20.00;;;0.60;99.90;;;;;;5078655;28;20047;-74
2021/12/23 09:06:55;;;;;;;34.90;22.38;;;0.70;99.90;;;;;;5055039;28;20052;-74
2021/12/23 09:09:23;;;;;;;33.35;18.40;;;0.60;99.90;;;;;;5072810;28;20131;-74
2021/12/23 09:11:49;;;;;;;33.33;19.88;;;0.60;99.90;;;;;;5090331;28;20701;-75
2021/12/23 09:14:15;;;;;;;34.15;20.55;;;0.70;99.90;;;;;;5076333;28;20051;-75
2021/12/23 09:16:40;;;;;;;33.78;21.88;;;0.60;99.90;;;;;;5069677;28;20478;-75
2021/12/23 09:19:06;;;;;;;31.92;20.02;;;0.60;99.90;;;;;;5069516;28;20045;-75
2021/12/23 09:21:32;;;;;;;31.65;19.92;;;0.60;99.90;;;;;;5070837;28;20494;-75
2021/12/23 09:23:58;;;;;;;36.10;21.02;;;0.60;99.90;;;;;;5089983;28;20051;-75
2021/12/23 09:26:24;;;;;;;31.73;21.20;;;0.60;99.90;;;;;;5072599;28;20079;-74
2021/12/23 09:28:57;;;;;;;32.90;20.52;;;0.60;99.90;;;;;;5072565;28;20058;-75
2021/12/23 09:34:08;;;;;;;34.50;22.42;;;0.60;99.90;;;;;;5088727;28;20047;-75
2021/12/23 09:36:34;;;;;;;35.20;20.30;;;0.60;99.90;;;;;;5072714;28;20048;-75
2021/12/23 09:39:00;;;;;;;33.55;21.55;;;0.60;99.90;;;;;;5057440;28;20044;-73
2021/12/23 09:41:27;;;;;;;35.05;21.98;;;0.60;99.90;;;;;;5052239;28;20181;-73
2021/12/23 09:43:56;;;;;;;34.75;21.48;;;0.60;99.90;;;;;;5052474;28;20052;-73
2021/12/23 09:46:22;;;;;;;36.78;22.83;;;0.60;99.90;;;;;;5071007;28;20874;-74
2021/12/23 09:48:48;;;;;;;36.17;21.23;;;0.60;99.90;;;;;;5068702;28;20124;-74
2021/12/23 09:51:17;;;;;;;34.72;21.63;;;0.60;99.90;;;;;;5067817;28;20040;-74
2021/12/23 09:53:46;;;;;;;36.13;22.15;;;0.60;99.90;;;;;;5068136;28;20166;-74
2021/12/23 09:56:13;;;;;;;33.50;21.10;;;0.60;99.90;;;;;;5068395;28;20044;-75
2021/12/23 09:58:39;;;;;;;38.88;23.48;;;0.60;99.90;;;;;;5085043;28;20051;-75
2021/12/23 10:01:06;;;;;;;37.10;21.65;;;0.60;99.90;;;;;;5088106;28;20057;-74
2021/12/23 10:03:32;;;;;;;36.20;21.60;;;0.70;99.90;;;;;;5072349;28;20109;-75
2021/12/23 10:05:59;;;;;;;37.25;22.45;;;0.70;99.90;;;;;;5071107;28;20043;-75
2021/12/23 10:08:27;;;;;;;39.97;22.73;;;0.70;99.90;;;;;;5068294;28;20090;-75
2021/12/23 10:10:59;;;;;;;37.30;23.10;;;0.70;99.90;;;;;;5068006;28;20143;-75
2021/12/23 10:38:43;;;;;;;44.08;26.55;;;0.50;99.90;;;;;;5062759;28;20051;-74
2021/12/23 10:41:24;;;;;;;47.05;27.75;;;0.50;99.90;;;;;;5050778;28;20070;-75
2021/12/23 10:44:02;;;;;;;49.50;28.50;;;0.50;99.90;;;;;;5044321;28;20061;-74
2021/12/23 10:46:33;;;;;;;53.20;29.27;;;0.50;99.90;;;;;;5051622;28;20057;-74
2021/12/23 11:00:29;;;;;;;63.15;33.38;;;0.60;99.90;;;;;;5069719;28;20490;-75
2021/12/23 11:05:56;;;;;;;65.15;34.30;;;0.60;99.90;;;;;;5070139;28;20044;-75
2021/12/23 11:46:11;;;;;;;87.55;37.00;;;0.70;99.90;;;;;;5073388;28;20141;-75
2021/12/23 11:48:43;;;;;;;95.18;40.90;;;0.70;99.90;;;;;;5073030;28;20040;-73
2021/12/23 11:51:15;;;;;;;91.15;42.72;;;0.70;99.90;;;;;;5072534;28;20062;-73
2021/12/23 11:53:42;;;;;;;94.25;42.30;;;0.60;99.90;;;;;;5073374;28;20044;-74
2021/12/23 11:56:11;;;;;;;98.10;42.05;;;0.60;99.90;;;;;;5073066;28;20785;-74
2021/12/23 11:58:45;;;;;;;100.07;42.53;;;0.60;99.90;;;;;;5087713;28;20054;-74
2021/12/23 12:01:19;;;;;;;89.47;41.47;;;0.60;99.90;;;;;;5073960;28;20686;-74
2021/12/23 12:03:55;;;;;;;91.22;39.13;;;0.70;99.90;;;;;;5070640;28;20047;-74
2021/12/23 12:06:24;;;;;;;96.75;41.50;;;0.70;99.90;;;;;;5073185;28;20052;-74
2021/12/23 12:09:14;;;;;;;94.25;39.67;;;0.70;99.90;;;;;;5072042;28;20181;-74
2021/12/23 12:11:40;;;;;;;95.55;38.03;;;0.70;99.90;;;;;;5066329;28;20052;-74
2021/12/23 12:14:35;;;;;;;96.20;41.50;;;0.60;99.90;;;;;;5073705;28;20131;-74
2021/12/23 12:17:25;;;;;;;96.20;41.72;;;0.60;99.90;;;;;;5070256;28;20071;-74
2021/12/23 12:19:56;;;;;;;100.18;41.30;;;0.70;99.90;;;;;;5073862;28;20414;-74
2021/12/23 12:22:44;;;;;;;112.40;44.22;;;0.70;99.90;;;;;;5068698;28;20072;-74
2021/12/23 12:25:10;;;;;;;103.43;43.53;;;0.70;99.90;;;;;;5070151;28;20048;-74
2021/12/23 12:27:37;;;;;;;89.43;40.15;;;0.70;99.90;;;;;;5070864;28;20056;-74
2021/12/23 12:30:10;;;;;;;105.93;43.38;;;0.70;99.90;;;;;;5070188;28;20055;-74
2021/12/23 12:32:36;;;;;;;96.88;42.20;;;0.70;99.90;;;;;;5073320;28;20040;-74
2021/12/23 12:35:13;;;;;;;116.32;44.65;;;0.70;99.90;;;;;;5091710;28;20044;-74
2021/12/23 12:37:50;;;;;;;132.15;47.30;;;0.70;99.90;;;;;;5070468;28;20413;-74
2021/12/23 12:40:16;;;;;;;117.18;45.60;;;0.70;99.90;;;;;;5071177;28;20080;-74
2021/12/23 12:42:46;;;;;;;100.90;41.15;;;0.70;99.90;;;;;;5071394;28;20071;-74
2021/12/23 12:45:23;;;;;;;105.47;43.63;;;0.70;99.90;;;;;;5053645;28;20512;-74
2021/12/23 12:47:54;;;;;;;118.15;44.95;;;0.70;99.90;;;;;;5070765;28;20087;-74
2021/12/23 12:50:26;;;;;;;112.93;45.08;;;0.70;99.90;;;;;;5053640;28;20467;-74
2021/12/23 12:52:54;;;;;;;118.78;46.00;;;0.70;99.90;;;;;;5071320;28;20498;-74
2021/12/23 12:55:25;;;;;;;;;;;0.70;99.90;;;;;;5070088;28;20047;-74
2021/12/23 12:57:52;;;;;;;;;;;0.80;99.90;;;;;;5071704;28;20027;-74
2021/12/23 13:00:28;;;;;;;100.88;39.00;;;0.80;99.90;;;;;;5071214;28;20002;-74
2021/12/23 13:02:55;;;;;;;106.20;41.28;;;0.80;99.90;;;;;;5052570;28;20053;-74
2021/12/23 13:05:31;;;;;;;99.25;40.90;;;0.80;99.90;;;;;;5070461;28;20045;-74
2021/12/23 13:07:57;;;;;;;113.43;45.45;;;0.80;99.90;;;;;;5065618;28;20135;-74
2021/12/23 13:10:29;;;;;;;109.03;45.22;;;0.80;99.90;;;;;;5072602;28;20454;-75
2021/12/23 13:12:58;;;;;;;111.47;44.42;;;0.80;99.90;;;;;;5072763;28;20127;-74
2021/12/23 13:15:29;;;;;;;108.60;44.30;;;0.80;99.90;;;;;;5054974;28;20048;-74
2021/12/23 13:17:58;;;;;;;96.82;41.75;;;0.80;99.90;;;;;;5068183;28;20047;-74
2021/12/23 13:20:52;;;;;;;104.07;44.35;;;0.80;99.90;;;;;;5056279;28;20089;-74
2021/12/23 13:23:20;;;;;;;101.97;42.95;;;0.80;99.90;;;;;;5069141;28;20391;-74
2021/12/23 13:25:58;;;;;;;124.00;46.78;;;0.80;99.90;;;;;;5072656;28;20048;-74
2021/12/23 13:28:29;;;;;;;116.72;45.35;;;0.80;99.90;;;;;;5070684;28;20086;-74
2021/12/23 13:30:56;;;;;;;127.53;46.50;;;0.80;99.90;;;;;;5052627;28;20052;-74
2021/12/23 13:33:22;;;;;;;118.13;45.65;;;0.80;99.90;;;;;;5060803;28;20119;-74
2021/12/23 13:35:47;;;;;;;112.45;45.25;;;0.80;99.90;;;;;;5072512;28;20897;-74
2021/12/23 13:38:46;;;;;;;117.93;45.25;;;0.80;99.90;;;;;;5082214;28;20106;-74
2021/12/23 13:41:40;;;;;;;116.63;45.47;;;0.80;99.90;;;;;;5040779;28;20057;-74
2021/12/23 13:44:15;;;;;;;92.97;35.17;;;0.80;99.90;;;;;;5049420;28;20059;-74
2021/12/23 13:46:53;;;;;;;129.93;47.13;;;0.80;99.90;;;;;;5064083;28;20091;-74
2021/12/23 13:49:19;;;;;;;122.75;48.10;;;0.80;99.90;;;;;;5068812;28;20044;-74
2021/12/23 13:51:48;;;;;;;115.60;44.88;;;0.80;99.90;;;;;;5071588;28;20040;-74
2021/12/23 13:54:17;;;;;;;118.57;46.25;;;0.80;99.90;;;;;;5068278;28;20148;-74
2021/12/23 13:56:46;;;;;;;149.93;51.40;;;0.80;99.90;;;;;;5068073;28;20053;-74
2021/12/23 13:59:26;;;;;;;135.15;50.03;;;0.80;99.90;;;;;;5068400;28;20798;-74
2021/12/23 14:01:59;;;;;;;125.45;47.90;;;0.80;99.90;;;;;;5071258;28;20111;-74
2021/12/23 14:04:35;;;;;;;144.85;51.55;;;0.80;99.90;;;;;;5089931;28;20051;-74
2021/12/23 14:07:26;;;;;;;137.43;49.72;;;0.90;99.90;;;;;;5070964;28;20048;-74